Time;durP1;ratioP1;P1;durP2;ratioP2;P2;SDS_P1;SDS_P2;PMS_P1;PMS_P2;Temp;Humidity;BMP_temperature;BMP_pressure;BME280_temperature;BME280_humidity;BME280_pressure;Samples;Min_cycle;Max_cycle;Signal;HPM_P1;HPM_P2
2021/06/22 00:00:03;;;;;;;6.78;5.70;;;16.00;99.90;;;;;;5024643;28;20136;-79
2021/06/22 00:02:30;;;;;;;8.85;6.13;;;16.00;99.90;;;;;;5025276;28;20121;-80
2021/06/22 00:05:01;;;;;;;9.93;6.40;;;15.90;99.90;;;;;;5030936;28;20115;-79
2021/06/22 00:07:34;;;;;;;9.32;6.18;;;15.80;99.90;;;;;;5029183;28;20062;-78
2021/06/22 00:10:02;;;;;;;7.35;6.00;;;15.90;99.90;;;;;;5027016;28;20046;-79
2021/06/22 00:12:30;;;;;;;7.72;6.38;;;15.80;99.90;;;;;;5023666;28;20053;-79
2021/06/22 00:14:58;;;;;;;7.28;6.40;;;15.80;99.90;;;;;;5025350;28;20050;-79
2021/06/22 00:17:31;;;;;;;7.47;6.65;;;15.80;99.90;;;;;;5025089;28;20105;-79
2021/06/22 00:20:04;;;;;;;7.93;6.55;;;15.90;99.90;;;;;;5028058;28;20058;-78
2021/06/22 00:22:56;;;;;;;10.38;5.75;;;15.90;99.90;;;;;;5034521;23;20060;-79
2021/06/22 00:25:35;;;;;;;6.72;5.75;;;15.80;99.90;;;;;;5036522;28;20153;-80
2021/06/22 00:31:06;;;;;;;8.13;6.37;;;15.70;99.90;;;;;;5028286;28;20140;-79
2021/06/22 00:33:33;;;;;;;9.93;6.82;;;15.70;99.90;;;;;;5024110;28;20054;-79
2021/06/22 00:38:34;;;;;;;9.20;6.70;;;15.70;99.90;;;;;;5028890;28;20060;-78
2021/06/22 00:41:10;;;;;;;8.73;7.63;;;15.70;99.90;;;;;;5000692;28;20054;-78
2021/06/22 00:43:39;;;;;;;8.43;7.53;;;15.70;99.90;;;;;;5001214;28;20114;-78
2021/06/22 00:46:06;;;;;;;8.82;7.10;;;15.70;99.90;;;;;;5000603;28;20064;-79
2021/06/22 00:48:36;;;;;;;8.10;7.20;;;15.70;99.90;;;;;;4997567;28;20086;-78
2021/06/22 00:51:03;;;;;;;8.43;7.25;;;15.70;99.90;;;;;;4997609;28;20250;-78
2021/06/22 00:53:32;;;;;;;8.68;7.35;;;15.70;99.90;;;;;;4995507;28;20134;-78
2021/06/22 00:56:00;;;;;;;10.00;6.90;;;15.70;99.90;;;;;;4997107;28;20070;-79
2021/06/22 00:58:34;;;;;;;7.30;6.47;;;15.70;99.90;;;;;;4999226;28;20046;-79
2021/06/22 01:01:03;;;;;;;9.05;6.32;;;15.80;99.90;;;;;;4998906;28;20061;-79
2021/06/22 01:03:31;;;;;;;8.77;6.53;;;15.90;99.90;;;;;;5002612;28;20050;-78
2021/06/22 01:05:58;;;;;;;9.63;6.50;;;15.90;99.90;;;;;;5001222;28;20261;-78
2021/06/22 01:08:26;;;;;;;9.35;7.40;;;15.80;99.90;;;;;;5000946;28;20061;-79
2021/06/22 01:10:56;;;;;;;10.73;8.00;;;15.70;99.90;;;;;;4999685;28;20051;-79
2021/06/22 01:13:23;;;;;;;11.85;8.18;;;15.60;99.90;;;;;;4996080;28;20054;-78
2021/06/22 01:15:50;;;;;;;14.25;10.77;;;15.70;99.90;;;;;;4996194;28;20043;-78
2021/06/22 01:18:17;;;;;;;12.82;9.93;;;15.60;99.90;;;;;;4996229;28;20050;-78
2021/06/22 01:20:45;;;;;;;15.57;11.55;;;15.60;99.90;;;;;;4995848;28;20112;-78
2021/06/22 01:23:14;;;;;;;14.82;11.98;;;15.50;99.90;;;;;;4998506;28;20058;-79
2021/06/22 01:25:42;;;;;;;14.63;10.73;;;15.50;99.90;;;;;;4998807;28;20061;-78
2021/06/22 01:28:09;;;;;;;18.52;13.07;;;15.50;99.90;;;;;;5000151;28;20050;-79
2021/06/22 01:30:36;;;;;;;19.90;12.93;;;15.50;99.90;;;;;;5000320;28;20073;-80
2021/06/22 01:33:03;;;;;;;16.27;12.65;;;15.40;99.90;;;;;;5000360;28;20095;-79
2021/06/22 01:35:31;;;;;;;19.88;13.02;;;15.40;99.90;;;;;;5000612;28;20133;-79
2021/06/22 01:38:00;;;;;;;16.08;11.10;;;15.40;99.90;;;;;;4999940;28;20050;-79
2021/06/22 01:40:28;;;;;;;17.80;12.27;;;15.30;99.90;;;;;;4998081;28;20565;-79
2021/06/22 01:42:58;;;;;;;15.07;11.10;;;15.40;99.90;;;;;;4993852;28;20062;-77
2021/06/22 01:45:26;;;;;;;14.82;10.50;;;15.40;99.90;;;;;;4994417;28;20042;-78
2021/06/22 01:47:53;;;;;;;16.15;10.77;;;15.30;99.90;;;;;;4994975;28;20058;-78
2021/06/22 01:50:25;;;;;;;14.75;9.77;;;15.30;99.90;;;;;;4995064;28;20096;-78
2021/06/22 01:52:52;;;;;;;12.70;9.43;;;15.40;99.90;;;;;;4994548;28;20097;-77
2021/06/22 01:55:36;;;;;;;14.45;10.07;;;15.30;99.90;;;;;;4993741;28;20046;-77
2021/06/22 01:58:05;;;;;;;16.25;11.30;;;15.40;99.90;;;;;;4993582;28;20054;-78
2021/06/22 02:00:32;;;;;;;19.25;12.10;;;15.30;99.90;;;;;;4994002;28;20054;-78
2021/06/22 02:02:59;;;;;;;17.35;12.25;;;15.20;99.90;;;;;;4993499;28;20101;-78
2021/06/22 02:05:26;;;;;;;16.73;12.50;;;15.20;99.90;;;;;;4993502;28;20103;-77
2021/06/22 02:07:53;;;;;;;15.93;11.77;;;15.20;99.90;;;;;;4994614;28;20086;-80
2021/06/22 02:10:20;;;;;;;17.75;11.60;;;15.20;99.90;;;;;;4994072;28;20104;-78
2021/06/22 02:12:48;;;;;;;16.10;11.82;;;15.20;99.90;;;;;;4994645;28;20100;-78
2021/06/22 02:15:17;;;;;;;16.48;11.55;;;15.20;99.90;;;;;;4996379;28;20150;-78
2021/06/22 02:17:44;;;;;;;17.02;11.38;;;15.20;99.90;;;;;;4996864;28;20117;-79
2021/06/22 02:20:12;;;;;;;16.13;11.05;;;15.20;99.90;;;;;;4997537;28;20479;-80
2021/06/22 02:22:39;;;;;;;16.27;11.35;;;15.30;99.90;;;;;;4998273;28;20142;-78
2021/06/22 02:25:08;;;;;;;15.77;11.43;;;15.30;99.90;;;;;;4997774;28;20050;-79
2021/06/22 02:27:36;;;;;;;15.43;11.02;;;15.30;99.90;;;;;;5002911;28;20125;-79
2021/06/22 02:30:03;;;;;;;16.13;11.60;;;15.40;99.90;;;;;;5003504;28;20101;-79
2021/06/22 02:32:31;;;;;;;16.10;11.48;;;15.40;99.90;;;;;;5001905;28;20549;-80
2021/06/22 02:34:59;;;;;;;15.70;11.57;;;15.40;99.90;;;;;;5003369;28;20085;-79
2021/06/22 02:37:26;;;;;;;17.48;11.18;;;15.40;99.90;;;;;;5001483;28;20104;-78
2021/06/22 02:39:52;;;;;;;14.73;10.43;;;15.20;99.90;;;;;;4995148;28;20164;-78
2021/06/22 02:42:19;;;;;;;15.70;10.82;;;15.20;99.90;;;;;;4995989;28;20333;-78
2021/06/22 02:44:46;;;;;;;13.93;9.90;;;15.10;99.90;;;;;;5000360;28;20226;-80
2021/06/22 02:47:13;;;;;;;17.10;10.20;;;15.10;99.90;;;;;;5012227;28;20118;-77
2021/06/22 02:49:41;;;;;;;16.73;10.00;;;15.10;99.90;;;;;;5010414;28;20057;-78
2021/06/22 02:52:09;;;;;;;14.40;9.35;;;15.00;99.90;;;;;;4999607;28;20057;-80
2021/06/22 02:54:38;;;;;;;10.98;8.93;;;14.90;99.90;;;;;;4997821;28;20053;-78
2021/06/22 02:57:06;;;;;;;12.65;8.73;;;14.90;99.90;;;;;;4993064;28;20104;-78
2021/06/22 02:59:33;;;;;;;14.05;9.70;;;14.90;99.90;;;;;;4994342;28;20114;-80
2021/06/22 03:02:00;;;;;;;13.35;9.70;;;14.80;99.90;;;;;;4997836;28;20084;-79
2021/06/22 03:04:27;;;;;;;11.93;8.65;;;14.80;99.90;;;;;;4996722;28;20133;-78
2021/06/22 03:06:55;;;;;;;14.52;8.07;;;14.80;99.90;;;;;;4995576;28;20242;-78
2021/06/22 03:09:22;;;;;;;11.48;7.43;;;14.70;99.90;;;;;;4994530;28;20051;-79
2021/06/22 03:11:49;;;;;;;10.43;7.47;;;14.70;99.90;;;;;;4997217;28;20133;-78
2021/06/22 03:14:17;;;;;;;13.55;7.47;;;14.60;99.90;;;;;;4996117;28;20085;-77
2021/06/22 03:16:44;;;;;;;10.98;7.20;;;14.60;99.90;;;;;;4995148;28;20047;-79
2021/06/22 03:19:11;;;;;;;9.50;6.93;;;14.60;99.90;;;;;;4994003;28;20093;-79
2021/06/22 03:21:40;;;;;;;10.50;7.78;;;14.70;99.90;;;;;;4993317;28;20137;-78
2021/06/22 03:24:08;;;;;;;12.93;7.80;;;14.70;99.90;;;;;;4993517;28;20050;-78
2021/06/22 03:26:35;;;;;;;11.02;7.63;;;14.60;99.90;;;;;;4996996;28;20090;-79
2021/06/22 03:29:02;;;;;;;12.68;7.18;;;14.50;99.90;;;;;;4996294;28;20082;-78
2021/06/22 03:31:28;;;;;;;15.73;7.88;;;14.50;99.90;;;;;;4996114;28;20050;-78
2021/06/22 03:33:55;;;;;;;16.15;8.57;;;14.60;99.90;;;;;;4997362;28;20546;-78
2021/06/22 03:36:22;;;;;;;12.73;8.63;;;14.50;99.90;;;;;;4997259;28;20910;-78
2021/06/22 03:38:49;;;;;;;12.13;9.10;;;14.40;99.90;;;;;;4997047;28;20137;-78
2021/06/22 03:41:18;;;;;;;13.75;8.70;;;14.40;99.90;;;;;;4996632;28;20142;-78
2021/06/22 03:43:45;;;;;;;11.82;8.15;;;14.40;99.90;;;;;;4998313;28;20089;-78
2021/06/22 03:46:16;;;;;;;12.80;8.70;;;14.50;99.90;;;;;;4995736;28;20082;-78
2021/06/22 03:48:43;;;;;;;11.68;9.13;;;14.50;99.90;;;;;;4996501;28;20495;-78
2021/06/22 03:51:10;;;;;;;14.02;9.00;;;14.60;99.90;;;;;;4996812;28;20137;-79
2021/06/22 03:53:37;;;;;;;14.93;9.60;;;14.60;99.90;;;;;;4998606;28;20051;-78
2021/06/22 03:56:05;;;;;;;17.05;10.80;;;14.60;99.90;;;;;;4998061;28;20046;-79
2021/06/22 03:58:34;;;;;;;16.13;10.90;;;14.60;99.90;;;;;;4996843;28;20081;-78
2021/06/22 04:01:02;;;;;;;16.75;10.00;;;14.60;99.90;;;;;;4995980;28;20138;-78
2021/06/22 04:03:29;;;;;;;16.20;10.20;;;14.60;99.90;;;;;;4995250;28;20145;-78
2021/06/22 04:05:56;;;;;;;16.80;11.05;;;14.70;99.90;;;;;;4995970;28;20469;-77
2021/06/22 04:08:24;;;;;;;15.82;10.80;;;14.70;99.90;;;;;;4996848;28;20462;-78
2021/06/22 04:10:51;;;;;;;14.43;10.18;;;14.60;99.90;;;;;;4997038;28;20484;-78
2021/06/22 04:13:18;;;;;;;19.67;11.10;;;14.70;99.90;;;;;;4996547;28;20136;-78
2021/06/22 04:15:46;;;;;;;19.00;11.00;;;14.60;99.90;;;;;;4996554;28;20134;-77
2021/06/22 04:18:13;;;;;;;17.00;10.38;;;14.50;99.90;;;;;;4996333;28;20157;-78
2021/06/22 04:20:40;;;;;;;16.98;11.30;;;14.50;99.90;;;;;;4997605;28;20097;-77
2021/06/22 04:23:07;;;;;;;20.95;12.55;;;14.40;99.90;;;;;;4996042;28;20061;-78
2021/06/22 04:25:35;;;;;;;23.70;14.10;;;14.40;99.90;;;;;;4997593;28;20053;-79
2021/06/22 04:28:03;;;;;;;25.90;15.05;;;14.40;99.90;;;;;;4999210;28;20058;-78
2021/06/22 04:30:30;;;;;;;25.25;14.73;;;14.30;99.90;;;;;;4998102;28;20053;-78
2021/06/22 04:32:58;;;;;;;26.05;15.80;;;14.30;99.90;;;;;;4997793;28;20142;-78
2021/06/22 04:35:27;;;;;;;23.40;15.77;;;14.30;99.90;;;;;;4998162;28;20430;-78
2021/06/22 04:37:54;;;;;;;25.40;15.20;;;14.30;99.90;;;;;;4997895;28;20546;-79
2021/06/22 04:40:21;;;;;;;26.65;15.82;;;14.30;99.90;;;;;;4999482;28;20081;-79
2021/06/22 04:42:48;;;;;;;23.77;15.65;;;14.30;99.90;;;;;;4999489;28;20064;-78
2021/06/22 04:45:15;;;;;;;24.55;16.05;;;14.30;99.90;;;;;;4999015;28;20954;-78
2021/06/22 04:47:42;;;;;;;22.02;15.20;;;14.30;99.90;;;;;;4998554;28;20118;-80
2021/06/22 04:50:11;;;;;;;20.20;13.85;;;14.30;99.90;;;;;;4999554;28;20078;-79
2021/06/22 04:52:38;;;;;;;23.73;14.95;;;14.40;99.90;;;;;;5000302;28;20100;-78
2021/06/22 04:55:11;;;;;;;22.30;14.85;;;14.40;99.90;;;;;;4999480;28;20125;-78
2021/06/22 04:57:42;;;;;;;20.15;13.48;;;14.50;99.90;;;;;;4998508;28;20054;-79
2021/06/22 05:00:10;;;;;;;16.42;12.35;;;14.60;99.90;;;;;;4997613;28;20054;-79
2021/06/22 05:02:39;;;;;;;14.15;10.82;;;14.60;99.90;;;;;;4996969;28;20392;-79
2021/06/22 05:05:07;;;;;;;14.63;11.68;;;14.60;99.90;;;;;;4994932;28;20058;-78
2021/06/22 05:07:36;;;;;;;17.25;12.48;;;14.60;99.90;;;;;;4994756;28;20300;-78
2021/06/22 05:10:03;;;;;;;15.85;12.40;;;14.70;99.90;;;;;;4994999;28;20145;-78
2021/06/22 05:12:30;;;;;;;16.85;12.20;;;14.70;99.90;;;;;;4995449;28;20530;-78
2021/06/22 05:14:57;;;;;;;15.63;11.65;;;14.60;99.90;;;;;;4994103;28;20138;-79
2021/06/22 05:17:24;;;;;;;16.13;11.35;;;14.70;99.90;;;;;;4995187;28;20410;-78
2021/06/22 05:19:51;;;;;;;14.30;9.25;;;14.70;99.90;;;;;;4994488;28;20050;-78
2021/06/22 05:22:18;;;;;;;11.35;7.57;;;14.80;99.90;;;;;;4994750;28;20115;-78
2021/06/22 05:24:46;;;;;;;8.02;6.78;;;14.90;99.90;;;;;;4995607;28;20478;-79
2021/06/22 05:27:13;;;;;;;8.60;6.70;;;14.90;99.90;;;;;;4995863;28;20472;-80
2021/06/22 05:29:40;;;;;;;8.80;6.90;;;14.90;99.90;;;;;;4995157;28;20507;-78
2021/06/22 05:32:08;;;;;;;11.57;7.05;;;15.00;99.90;;;;;;4994422;28;20129;-79
2021/06/22 05:34:35;;;;;;;8.60;6.70;;;15.00;99.90;;;;;;4994556;28;20133;-78
2021/06/22 05:37:02;;;;;;;9.18;6.60;;;15.00;99.90;;;;;;4994517;28;20464;-78
2021/06/22 05:39:29;;;;;;;8.65;6.53;;;15.00;99.90;;;;;;4994083;28;20054;-79
2021/06/22 05:41:57;;;;;;;7.47;6.43;;;15.00;99.90;;;;;;4993839;28;20252;-77
2021/06/22 05:44:24;;;;;;;8.73;6.80;;;14.90;99.90;;;;;;4993625;28;20133;-78
2021/06/22 05:46:51;;;;;;;11.10;7.82;;;14.90;99.90;;;;;;4993043;28;20046;-78
2021/06/22 05:49:18;;;;;;;9.75;7.13;;;14.90;99.90;;;;;;4998569;28;20114;-79
2021/06/22 05:51:45;;;;;;;9.93;7.43;;;14.90;99.90;;;;;;4997588;28;20129;-80
2021/06/22 05:54:12;;;;;;;10.88;7.32;;;14.90;99.90;;;;;;4997104;28;20074;-78
2021/06/22 05:56:39;;;;;;;10.77;7.20;;;14.90;99.90;;;;;;4996320;28;20069;-78
2021/06/22 05:59:07;;;;;;;10.75;6.60;;;14.90;99.90;;;;;;4997673;28;20106;-77
2021/06/22 06:01:34;;;;;;;8.60;6.47;;;14.90;99.90;;;;;;4997622;28;20221;-80
2021/06/22 06:04:01;;;;;;;10.13;6.85;;;15.00;99.90;;;;;;4996504;28;20082;-79
2021/06/22 06:06:28;;;;;;;9.75;6.88;;;14.90;99.90;;;;;;4996197;28;20100;-79
2021/06/22 06:08:55;;;;;;;8.20;6.38;;;14.90;99.90;;;;;;4997130;28;20050;-78
2021/06/22 06:11:22;;;;;;;9.00;6.18;;;15.00;99.90;;;;;;4997116;28;20089;-79
2021/06/22 06:13:49;;;;;;;11.05;6.13;;;15.00;99.90;;;;;;4996086;28;20321;-79
2021/06/22 06:16:17;;;;;;;11.00;6.13;;;15.00;99.90;;;;;;4996171;28;20129;-80
2021/06/22 06:18:44;;;;;;;8.23;6.43;;;15.10;99.90;;;;;;4999528;28;20137;-80
2021/06/22 06:21:11;;;;;;;8.18;5.97;;;15.10;99.90;;;;;;4999862;28;20129;-80
2021/06/22 06:23:40;;;;;;;9.90;6.50;;;15.10;99.90;;;;;;4999475;28;20074;-81
2021/06/22 06:26:10;;;;;;;10.23;7.13;;;15.10;99.90;;;;;;4998984;28;20458;-83
2021/06/22 06:28:41;;;;;;;11.55;7.75;;;15.20;99.90;;;;;;4999431;28;20109;-80
2021/06/22 06:31:08;;;;;;;11.32;8.25;;;15.10;99.90;;;;;;4998944;28;20057;-82
2021/06/22 06:33:36;;;;;;;11.82;8.98;;;15.20;99.90;;;;;;5000681;28;20149;-83
2021/06/22 06:36:03;;;;;;;11.30;8.88;;;15.30;99.90;;;;;;5001561;28;20042;-83
2021/06/22 06:38:33;;;;;;;11.30;9.00;;;15.30;99.90;;;;;;5049361;23;20140;-76
2021/06/22 06:41:01;;;;;;;12.90;9.50;;;15.10;99.90;;;;;;5019702;28;20057;-78
2021/06/22 06:43:28;;;;;;;14.20;9.82;;;14.90;99.90;;;;;;5012309;28;20054;-76
2021/06/22 06:45:55;;;;;;;14.32;10.23;;;14.80;99.90;;;;;;5011772;28;20461;-77
2021/06/22 06:48:23;;;;;;;17.17;11.00;;;14.90;99.90;;;;;;5012381;28;20123;-77
2021/06/22 06:50:51;;;;;;;16.08;12.38;;;14.80;99.90;;;;;;5010389;28;20056;-76
2021/06/22 06:53:19;;;;;;;16.50;11.57;;;14.80;99.90;;;;;;5011421;28;20050;-76
2021/06/22 06:55:47;;;;;;;20.63;11.90;;;14.80;99.90;;;;;;5011144;28;20133;-77
2021/06/22 06:58:14;;;;;;;16.27;11.50;;;14.80;99.90;;;;;;5010762;28;20049;-76
2021/06/22 07:00:41;;;;;;;16.08;11.93;;;14.70;99.90;;;;;;5011991;28;20054;-77
2021/06/22 07:03:08;;;;;;;20.65;12.77;;;14.70;99.90;;;;;;5010510;28;20136;-77
2021/06/22 07:05:36;;;;;;;15.23;11.50;;;14.80;99.90;;;;;;5011245;28;20141;-76
2021/06/22 07:08:05;;;;;;;18.92;13.20;;;14.90;99.90;;;;;;5011192;28;20053;-76
2021/06/22 07:10:33;;;;;;;17.95;12.68;;;15.10;99.90;;;;;;5011472;28;20309;-76
2021/06/22 07:13:04;;;;;;;15.10;11.75;;;15.30;99.90;;;;;;5011101;28;20056;-77
2021/06/22 07:15:31;;;;;;;18.05;12.25;;;15.40;99.90;;;;;;5011197;28;20135;-77
2021/06/22 07:17:58;;;;;;;19.83;12.90;;;15.70;99.90;;;;;;5011328;28;20046;-77
2021/06/22 07:20:25;;;;;;;18.63;12.70;;;15.70;99.90;;;;;;5011451;28;20049;-77
2021/06/22 07:22:52;;;;;;;20.02;13.32;;;15.70;99.90;;;;;;5012209;28;20085;-75
2021/06/22 07:25:25;;;;;;;16.13;12.80;;;15.60;99.90;;;;;;5012818;28;20133;-76
2021/06/22 07:27:52;;;;;;;21.05;14.23;;;15.60;99.90;;;;;;5012083;28;20478;-76
2021/06/22 07:30:23;;;;;;;21.83;13.23;;;15.60;99.90;;;;;;5012292;28;20133;-77
2021/06/22 07:32:50;;;;;;;15.55;13.00;;;15.40;99.90;;;;;;5012476;28;20423;-77
2021/06/22 07:35:17;;;;;;;16.88;13.25;;;15.40;99.90;;;;;;5012729;28;20053;-77
2021/06/22 07:37:44;;;;;;;17.73;13.75;;;15.30;99.90;;;;;;5012869;28;20367;-77
2021/06/22 07:40:13;;;;;;;20.70;13.52;;;15.30;99.90;;;;;;5012567;28;20083;-77
2021/06/22 07:42:42;;;;;;;18.90;13.57;;;15.40;99.90;;;;;;5013754;28;20089;-79
2021/06/22 07:45:10;;;;;;;21.90;15.23;;;15.50;99.90;;;;;;5014565;28;20125;-80
2021/06/22 07:47:36;;;;;;;21.60;14.25;;;15.60;99.90;;;;;;5012841;28;20064;-79
2021/06/22 07:50:05;;;;;;;22.55;14.90;;;15.70;99.90;;;;;;5014676;28;20119;-79
2021/06/22 07:52:31;;;;;;;21.00;14.18;;;15.80;99.90;;;;;;5014774;28;20145;-80
2021/06/22 07:54:58;;;;;;;18.92;14.90;;;15.50;99.90;;;;;;5022568;28;20053;-81
2021/06/22 07:57:34;;;;;;;21.98;15.10;;;15.40;99.90;;;;;;5024104;28;20097;-79
2021/06/22 08:00:05;;;;;;;20.77;14.95;;;15.40;99.90;;;;;;5009246;28;20218;-78
2021/06/22 08:02:31;;;;;;;20.88;15.73;;;15.40;99.90;;;;;;5018371;28;20126;-79
2021/06/22 08:04:58;;;;;;;23.48;16.50;;;15.50;99.90;;;;;;5013433;28;20086;-79
2021/06/22 08:07:25;;;;;;;25.23;15.00;;;15.50;99.90;;;;;;5013332;28;20125;-82
2021/06/22 08:09:52;;;;;;;23.13;15.05;;;15.40;99.90;;;;;;5013802;28;20518;-78
2021/06/22 08:12:19;;;;;;;24.00;16.60;;;15.20;99.90;;;;;;5016121;28;20175;-79
2021/06/22 08:14:45;;;;;;;17.75;14.20;;;15.20;99.90;;;;;;5017424;28;20112;-77
2021/06/22 08:17:14;;;;;;;21.88;15.10;;;15.20;99.90;;;;;;5016535;28;20125;-78
2021/06/22 08:19:41;;;;;;;20.15;14.73;;;15.10;99.90;;;;;;5015329;28;20077;-79
2021/06/22 08:22:07;;;;;;;20.17;15.18;;;15.10;99.90;;;;;;5015481;28;20049;-78
2021/06/22 08:24:34;;;;;;;20.45;15.00;;;15.20;99.90;;;;;;5017482;28;20153;-78
2021/06/22 08:27:01;;;;;;;20.35;13.75;;;15.30;99.90;;;;;;5024661;28;20074;-78
2021/06/22 08:29:28;;;;;;;19.85;12.98;;;15.40;99.90;;;;;;5028433;28;20050;-79
2021/06/22 08:31:55;;;;;;;19.88;13.98;;;15.40;99.90;;;;;;5023731;28;20540;-80
2021/06/22 08:34:23;;;;;;;17.55;13.77;;;15.40;99.90;;;;;;5034634;28;20073;-78
2021/06/22 08:36:50;;;;;;;17.13;13.63;;;15.50;99.90;;;;;;5028753;28;20045;-78
2021/06/22 08:39:17;;;;;;;20.48;14.30;;;15.50;99.90;;;;;;5025261;28;20380;-79
2021/06/22 08:41:47;;;;;;;17.52;14.05;;;15.60;99.90;;;;;;5026369;28;20077;-79
2021/06/22 08:44:18;;;;;;;20.27;13.68;;;15.60;99.90;;;;;;5023417;28;20132;-79
2021/06/22 08:46:46;;;;;;;21.77;13.88;;;15.80;99.90;;;;;;5027195;28;20069;-78
2021/06/22 08:49:14;;;;;;;17.67;13.40;;;15.80;99.90;;;;;;5028416;28;20138;-79
2021/06/22 08:51:43;;;;;;;18.38;12.43;;;15.90;99.90;;;;;;5028386;28;20103;-78
2021/06/22 08:54:13;;;;;;;18.30;12.20;;;16.00;99.90;;;;;;5027763;28;20057;-79
2021/06/22 08:56:43;;;;;;;17.10;11.82;;;16.30;99.90;;;;;;5037757;28;20453;-80
2021/06/22 08:59:10;;;;;;;16.92;11.63;;;16.40;99.90;;;;;;5024305;28;20041;-80
2021/06/22 09:01:37;;;;;;;16.05;11.27;;;16.70;99.90;;;;;;5029867;28;20053;-79
2021/06/22 09:04:04;;;;;;;17.45;11.75;;;16.90;99.90;;;;;;5024781;28;20077;-81
2021/06/22 09:06:43;;;;;;;14.98;10.93;;;17.10;99.90;;;;;;5026922;28;20392;-82
2021/06/22 09:09:11;;;;;;;14.40;11.02;;;17.00;99.90;;;;;;5039154;28;20136;-81
2021/06/22 09:11:38;;;;;;;16.92;10.93;;;16.90;99.90;;;;;;5035623;28;20433;-80
2021/06/22 09:14:07;;;;;;;16.25;10.60;;;17.00;99.90;;;;;;5039167;28;20045;-78
2021/06/22 09:16:37;;;;;;;12.57;9.95;;;16.90;99.90;;;;;;5027357;28;20097;-80
2021/06/22 09:19:05;;;;;;;15.57;10.13;;;16.90;99.90;;;;;;5024603;28;20053;-81
2021/06/22 09:21:41;;;;;;;17.13;11.27;;;16.90;99.90;;;;;;5016659;28;20068;-81
2021/06/22 09:24:18;;;;;;;14.57;10.32;;;16.70;99.90;;;;;;5014644;28;20053;-81
2021/06/22 09:26:46;;;;;;;19.63;10.57;;;16.70;99.90;;;;;;5044844;28;20080;-79
2021/06/22 09:29:15;;;;;;;12.82;10.10;;;16.70;99.90;;;;;;5032785;28;20046;-79
2021/06/22 09:31:54;;;;;;;15.50;10.73;;;16.80;99.90;;;;;;5017461;28;20069;-82
2021/06/22 09:34:24;;;;;;;21.98;11.25;;;16.70;99.90;;;;;;5024209;28;20605;-80
2021/06/22 09:36:52;;;;;;;16.27;10.55;;;16.60;99.90;;;;;;5017642;28;20110;-82
2021/06/22 09:39:24;;;;;;;14.57;9.63;;;16.70;99.90;;;;;;5019658;28;20054;-84
2021/06/22 09:41:52;;;;;;;13.43;9.95;;;16.80;99.90;;;;;;5018902;28;20058;-82
2021/06/22 09:44:23;;;;;;;14.52;10.02;;;16.80;99.90;;;;;;5018526;28;20047;-81
2021/06/22 09:46:56;;;;;;;14.77;10.30;;;16.70;99.90;;;;;;5025478;28;20050;-81
2021/06/22 09:49:32;;;;;;;20.13;10.48;;;16.60;99.90;;;;;;5035538;28;20041;-82
2021/06/22 09:52:06;;;;;;;12.73;9.88;;;16.60;99.90;;;;;;5039470;28;20050;-81
2021/06/22 09:54:42;;;;;;;14.68;11.18;;;16.60;99.90;;;;;;5041440;28;20077;-81
2021/06/22 09:57:18;;;;;;;15.95;10.50;;;16.40;99.90;;;;;;5034444;28;20078;-81
2021/06/22 09:59:57;;;;;;;13.52;10.88;;;16.40;99.90;;;;;;5019554;28;20384;-84
2021/06/22 10:02:26;;;;;;;17.63;9.40;;;16.60;99.90;;;;;;5014540;28;20046;-79
2021/06/22 10:04:55;;;;;;;15.35;9.85;;;16.70;99.90;;;;;;5014626;28;20073;-80
2021/06/22 10:07:24;;;;;;;15.65;10.55;;;16.90;99.90;;;;;;5016831;28;20046;-80
2021/06/22 10:09:56;;;;;;;14.05;10.68;;;17.00;99.90;;;;;;5031001;28;20532;-80
2021/06/22 10:12:25;;;;;;;16.73;9.88;;;17.10;99.90;;;;;;5030523;28;20050;-80
2021/06/22 10:14:54;;;;;;;12.80;9.25;;;17.30;99.90;;;;;;5047822;28;20084;-81
2021/06/22 10:17:27;;;;;;;14.55;10.23;;;17.40;99.90;;;;;;5043552;28;20034;-81
2021/06/22 10:19:55;;;;;;;17.65;10.55;;;17.60;99.90;;;;;;5044303;28;20060;-82
2021/06/22 10:22:25;;;;;;;12.45;9.65;;;17.80;99.90;;;;;;5045596;28;20089;-80
2021/06/22 10:25:01;;;;;;;13.05;9.82;;;17.60;99.90;;;;;;5036116;28;20050;-82
2021/06/22 10:27:30;;;;;;;15.68;9.50;;;17.70;99.90;;;;;;5040716;28;20057;-83
2021/06/22 10:30:01;;;;;;;13.30;10.40;;;17.80;99.90;;;;;;5037251;28;20053;-81
2021/06/22 10:32:32;;;;;;;18.25;10.45;;;17.70;99.90;;;;;;5037407;28;20053;-80
2021/06/22 10:35:13;;;;;;;15.30;10.18;;;17.60;99.90;;;;;;5043012;28;20057;-81
2021/06/22 10:37:48;;;;;;;13.65;10.00;;;17.50;99.90;;;;;;5032307;28;20159;-81
2021/06/22 10:40:23;;;;;;;13.82;9.57;;;17.40;99.90;;;;;;5033822;28;20060;-81
2021/06/22 10:42:52;;;;;;;11.75;8.75;;;17.70;99.90;;;;;;5037515;28;20473;-84
2021/06/22 10:45:21;;;;;;;13.82;9.15;;;18.00;99.90;;;;;;5039164;28;20065;-84
2021/06/22 10:47:49;;;;;;;13.93;9.88;;;18.20;99.90;;;;;;5032520;28;20080;-82
2021/06/22 10:50:32;;;;;;;13.32;9.65;;;18.20;99.90;;;;;;5022707;28;20046;-84
2021/06/22 10:53:08;;;;;;;12.57;9.10;;;18.10;99.90;;;;;;5021960;28;20110;-81
2021/06/22 10:55:58;;;;;;;10.38;8.60;;;18.00;99.90;;;;;;5026606;28;20108;-81
2021/06/22 10:58:26;;;;;;;11.27;8.98;;;18.10;99.90;;;;;;5017573;28;20060;-81
2021/06/22 11:01:22;;;;;;;11.18;8.50;;;18.20;99.90;;;;;;5022633;28;20054;-81
2021/06/22 11:04:05;;;;;;;9.73;7.70;;;18.20;99.90;;;;;;5020041;28;20050;-82
2021/06/22 11:06:32;;;;;;;9.68;7.40;;;18.40;99.90;;;;;;5016352;28;20084;-81
2021/06/22 11:09:20;;;;;;;10.98;7.20;;;18.40;99.90;;;;;;5028841;28;20050;-82
2021/06/22 11:11:49;;;;;;;10.30;7.32;;;18.50;99.90;;;;;;5030291;28;20137;-82
2021/06/22 11:14:17;;;;;;;8.15;7.28;;;18.50;99.90;;;;;;5022617;28;20086;-81
2021/06/22 11:16:44;;;;;;;11.20;6.88;;;18.50;99.90;;;;;;5029176;28;20056;-83
2021/06/22 11:19:13;;;;;;;9.65;7.47;;;18.50;99.90;;;;;;5045221;28;20046;-82
2021/06/22 11:21:55;;;;;;;8.43;6.40;;;18.50;99.90;;;;;;5039032;28;20034;-82
2021/06/22 11:24:27;;;;;;;10.85;6.40;;;18.60;99.90;;;;;;5042731;28;20077;-83
2021/06/22 11:27:03;;;;;;;9.90;6.68;;;18.60;99.90;;;;;;5040484;28;20064;-81
2021/06/22 11:29:56;;;;;;;11.13;7.68;;;18.50;99.90;;;;;;5048194;28;20030;-84
2021/06/22 11:32:38;;;;;;;13.25;7.85;;;18.20;99.90;;;;;;5045021;28;20053;-85
2021/06/22 11:35:17;;;;;;;11.98;8.27;;;18.00;99.90;;;;;;5030237;28;20091;-82
2021/06/22 11:37:46;;;;;;;10.15;8.13;;;17.90;99.90;;;;;;5038656;28;20033;-83
2021/06/22 11:40:26;;;;;;;11.20;8.13;;;17.90;99.90;;;;;;5049615;28;20060;-82
2021/06/22 11:43:09;;;;;;;12.98;8.90;;;17.90;99.90;;;;;;5048756;28;20068;-86
2021/06/22 11:45:39;;;;;;;12.32;8.23;;;18.00;99.90;;;;;;5042163;28;20054;-83
2021/06/22 11:48:06;;;;;;;10.23;7.55;;;18.00;99.90;;;;;;5035718;28;20052;-82
2021/06/22 11:50:35;;;;;;;13.57;7.28;;;18.10;99.90;;;;;;5032012;28;20065;-83
2021/06/22 11:53:14;;;;;;;8.73;6.80;;;18.40;99.90;;;;;;5026868;28;20088;-81
2021/06/22 11:55:58;;;;;;;11.75;6.70;;;18.40;99.90;;;;;;5015290;28;20073;-81
2021/06/22 11:58:32;;;;;;;10.82;6.93;;;18.40;99.90;;;;;;5018407;28;20057;-81
2021/06/22 12:01:02;;;;;;;10.52;6.78;;;18.40;99.90;;;;;;5044839;28;20073;-81
2021/06/22 12:03:31;;;;;;;9.20;6.88;;;18.30;99.90;;;;;;5044581;28;20045;-83
2021/06/22 12:06:13;;;;;;;10.05;7.00;;;18.30;99.90;;;;;;5036717;28;20138;-83
2021/06/22 12:08:50;;;;;;;8.43;6.95;;;18.20;99.90;;;;;;5041516;28;20101;-83
2021/06/22 12:11:34;;;;;;;9.18;6.38;;;18.30;99.90;;;;;;5034567;28;20054;-82
2021/06/22 12:14:04;;;;;;;8.05;6.57;;;18.30;99.90;;;;;;5042148;28;20041;-80
2021/06/22 12:16:33;;;;;;;9.00;6.20;;;18.30;99.90;;;;;;5043091;28;20050;-80
2021/06/22 12:19:02;;;;;;;9.07;6.93;;;18.40;99.90;;;;;;5041652;28;20045;-83
2021/06/22 12:21:31;;;;;;;12.98;8.68;;;18.30;99.90;;;;;;5048635;28;20042;-81
2021/06/22 12:24:02;;;;;;;10.25;8.88;;;18.30;99.90;;;;;;5049561;28;20096;-82
2021/06/22 12:26:29;;;;;;;11.20;8.60;;;18.10;99.90;;;;;;5015683;28;20052;-83
2021/06/22 12:28:57;;;;;;;10.52;8.65;;;17.90;99.90;;;;;;5036479;28;20057;-81
2021/06/22 12:31:27;;;;;;;11.73;8.52;;;17.80;99.90;;;;;;5034334;28;20054;-81
2021/06/22 12:34:03;;;;;;;12.43;9.02;;;17.80;99.90;;;;;;5038143;28;20114;-80
2021/06/22 12:36:36;;;;;;;12.60;9.52;;;17.70;99.90;;;;;;5030945;28;20048;-81
2021/06/22 12:39:15;;;;;;;15.30;10.07;;;17.70;99.90;;;;;;5046198;28;20049;-82
2021/06/22 12:41:44;;;;;;;15.20;9.43;;;17.70;99.90;;;;;;5041450;28;20132;-81
2021/06/22 12:44:17;;;;;;;17.45;11.05;;;17.60;99.90;;;;;;5041827;28;20050;-81
2021/06/22 12:46:49;;;;;;;16.25;11.60;;;17.50;99.90;;;;;;5029157;28;20053;-82
2021/06/22 12:49:24;;;;;;;17.95;12.77;;;17.40;99.90;;;;;;5033316;28;20050;-85